Time;durP1;ratioP1;P1;durP2;ratioP2;P2;SDS_P1;SDS_P2;PMS_P1;PMS_P2;Temp;Humidity;BMP_temperature;BMP_pressure;BME280_temperature;BME280_humidity;BME280_pressure;Samples;Min_cycle;Max_cycle;Signal;HPM_P1;HPM_P2
2022/07/24 00:00:25;;;;;;;4.40;2.75;;;21.90;66.00;;;;;;5071401;28;20032;-71
2022/07/24 00:02:53;;;;;;;6.20;3.63;;;21.80;66.10;;;;;;5071515;28;20052;-73
2022/07/24 00:05:21;;;;;;;6.03;3.00;;;21.80;66.30;;;;;;5070588;28;20016;-73
2022/07/24 00:07:47;;;;;;;6.25;3.90;;;21.70;66.40;;;;;;5052733;28;20390;-73
2022/07/24 00:10:13;;;;;;;5.07;3.05;;;21.80;66.70;;;;;;5063367;28;20031;-72
2022/07/24 00:12:38;;;;;;;5.22;3.45;;;21.80;66.90;;;;;;5069844;28;20544;-73
2022/07/24 00:15:05;;;;;;;6.38;3.45;;;21.80;66.90;;;;;;5064289;28;20032;-73
2022/07/24 00:17:33;;;;;;;6.60;3.80;;;21.80;67.00;;;;;;5071200;28;20115;-72
2022/07/24 00:19:58;;;;;;;5.15;3.60;;;21.80;67.10;;;;;;5070731;28;20032;-72
2022/07/24 00:22:24;;;;;;;6.75;3.97;;;21.80;67.20;;;;;;5070299;28;20017;-72
2022/07/24 00:24:50;;;;;;;7.13;3.83;;;21.80;67.30;;;;;;5069774;28;20033;-73
2022/07/24 00:27:16;;;;;;;6.55;3.05;;;21.80;67.30;;;;;;5070834;28;20107;-73
2022/07/24 00:29:42;;;;;;;6.53;3.40;;;21.80;67.40;;;;;;5069823;28;20020;-74
2022/07/24 00:32:07;;;;;;;6.30;4.50;;;21.80;67.40;;;;;;5070565;28;20025;-71
2022/07/24 00:34:33;;;;;;;6.13;3.83;;;21.80;67.50;;;;;;5070296;28;20074;-72
2022/07/24 00:36:59;;;;;;;8.95;3.65;;;21.80;67.50;;;;;;5060851;28;20113;-73
2022/07/24 00:39:24;;;;;;;5.25;3.20;;;21.70;67.50;;;;;;5053419;28;20047;-73
2022/07/24 00:41:52;;;;;;;5.10;3.85;;;21.70;67.60;;;;;;5069386;28;20545;-73
2022/07/24 00:44:18;;;;;;;10.40;5.05;;;21.60;68.50;;;;;;5070537;28;20032;-73
2022/07/24 00:46:45;;;;;;;6.10;3.75;;;21.60;68.00;;;;;;5070193;28;20379;-73
2022/07/24 00:49:13;;;;;;;5.65;3.55;;;21.60;68.10;;;;;;5057235;28;20542;-72
2022/07/24 00:51:43;;;;;;;6.47;4.00;;;21.60;68.20;;;;;;5062690;28;20017;-71
2022/07/24 00:54:11;;;;;;;9.00;5.38;;;21.60;68.20;;;;;;5070236;28;20070;-73
2022/07/24 00:56:37;;;;;;;5.68;3.90;;;21.50;68.30;;;;;;5069850;28;20051;-72
2022/07/24 00:59:03;;;;;;;6.97;4.30;;;21.50;68.40;;;;;;5070668;28;20054;-72
2022/07/24 01:01:30;;;;;;;6.03;4.13;;;21.50;68.50;;;;;;5069596;28;20017;-72
2022/07/24 01:03:57;;;;;;;7.43;4.30;;;21.60;68.50;;;;;;5068827;28;20063;-72
2022/07/24 01:06:23;;;;;;;7.57;4.43;;;21.50;68.60;;;;;;5069527;28;20029;-72
2022/07/24 01:08:49;;;;;;;6.00;4.05;;;21.40;68.60;;;;;;5068397;28;20031;-73
2022/07/24 01:11:15;;;;;;;7.47;4.68;;;21.40;68.90;;;;;;5068700;28;20055;-72
2022/07/24 01:13:42;;;;;;;7.80;4.95;;;21.40;68.90;;;;;;5069953;28;20064;-72
2022/07/24 01:16:08;;;;;;;6.97;4.63;;;21.40;69.20;;;;;;5069730;28;20074;-71
2022/07/24 01:18:36;;;;;;;7.43;4.93;;;21.40;69.20;;;;;;5060861;28;20024;-72
2022/07/24 01:21:05;;;;;;;6.28;4.28;;;21.30;69.20;;;;;;5070503;28;20029;-72
2022/07/24 01:23:31;;;;;;;7.13;4.83;;;21.30;69.10;;;;;;5068109;28;20032;-72
2022/07/24 01:25:56;;;;;;;5.70;3.83;;;21.20;69.20;;;;;;5069288;28;20259;-72
2022/07/24 01:28:22;;;;;;;7.50;5.45;;;21.20;69.00;;;;;;5068220;28;20774;-72
2022/07/24 01:30:48;;;;;;;7.18;3.85;;;21.20;69.50;;;;;;5066606;28;20052;-72
2022/07/24 01:33:14;;;;;;;7.25;4.85;;;21.20;69.40;;;;;;5064815;28;20044;-72
2022/07/24 01:35:41;;;;;;;7.90;5.32;;;21.10;69.60;;;;;;5069200;28;20029;-72
2022/07/24 01:38:07;;;;;;;6.55;4.45;;;21.10;69.60;;;;;;5068219;28;20540;-73
2022/07/24 01:40:33;;;;;;;6.70;4.50;;;21.00;69.80;;;;;;5068767;28;20049;-73
2022/07/24 01:42:58;;;;;;;8.23;4.75;;;21.00;70.10;;;;;;5058484;28;20024;-72
2022/07/24 01:45:24;;;;;;;7.45;4.93;;;21.00;70.00;;;;;;5069122;28;20479;-73
2022/07/24 01:47:50;;;;;;;6.00;4.22;;;21.00;70.20;;;;;;5068226;28;20033;-73
2022/07/24 01:50:15;;;;;;;5.95;3.72;;;21.00;70.30;;;;;;5068339;28;20035;-71
2022/07/24 01:52:41;;;;;;;7.13;4.40;;;21.00;70.10;;;;;;5068219;28;20025;-72
2022/07/24 01:55:07;;;;;;;7.05;4.65;;;21.00;69.90;;;;;;5069235;28;20017;-73
2022/07/24 01:57:34;;;;;;;6.25;3.85;;;21.00;70.00;;;;;;5067473;28;20086;-73
2022/07/24 02:00:00;;;;;;;6.95;4.40;;;21.00;69.90;;;;;;5069014;28;20048;-73
2022/07/24 02:02:27;;;;;;;5.70;3.92;;;21.00;70.10;;;;;;5055892;28;20041;-73
2022/07/24 02:04:53;;;;;;;6.85;4.15;;;21.00;70.10;;;;;;5068200;28;20885;-73
2022/07/24 02:07:19;;;;;;;7.47;4.45;;;21.00;69.80;;;;;;5068583;28;20092;-72
2022/07/24 02:09:45;;;;;;;7.00;4.88;;;21.00;69.70;;;;;;5069155;28;20025;-73
2022/07/24 02:12:10;;;;;;;5.60;3.63;;;20.90;70.00;;;;;;5061615;28;20429;-72
2022/07/24 02:14:37;;;;;;;6.40;4.75;;;20.90;69.50;;;;;;5064001;28;20037;-72
2022/07/24 02:17:03;;;;;;;8.05;5.93;;;20.90;69.90;;;;;;5075752;28;20095;-73
2022/07/24 02:19:29;;;;;;;9.57;6.78;;;20.90;70.00;;;;;;5070280;28;20029;-73
2022/07/24 02:21:55;;;;;;;6.68;4.45;;;20.90;70.00;;;;;;5068135;28;20043;-73
2022/07/24 02:24:21;;;;;;;8.50;4.80;;;20.90;70.10;;;;;;5068678;28;20075;-73
2022/07/24 02:26:47;;;;;;;7.45;5.00;;;20.90;70.20;;;;;;5069012;28;20509;-74
2022/07/24 02:29:13;;;;;;;5.68;4.15;;;20.90;69.90;;;;;;5068518;28;20017;-73
2022/07/24 02:31:38;;;;;;;10.45;7.22;;;20.90;69.70;;;;;;5069359;28;20561;-73
2022/07/24 02:34:04;;;;;;;7.20;4.88;;;20.80;70.00;;;;;;5054671;28;20047;-73
2022/07/24 02:36:30;;;;;;;7.55;5.22;;;20.80;69.60;;;;;;5063353;28;20033;-73
2022/07/24 02:38:55;;;;;;;5.93;4.40;;;20.70;69.80;;;;;;5068653;28;20153;-73
2022/07/24 02:41:21;;;;;;;8.93;6.22;;;20.70;70.40;;;;;;5067343;28;20468;-73
2022/07/24 02:43:46;;;;;;;6.57;5.00;;;20.70;69.80;;;;;;5067855;28;20140;-74
2022/07/24 02:46:12;;;;;;;9.20;5.18;;;20.80;69.90;;;;;;5068535;28;21413;-73
2022/07/24 02:48:38;;;;;;;7.63;5.10;;;20.70;70.40;;;;;;5069327;28;20458;-73
2022/07/24 02:51:03;;;;;;;8.32;5.90;;;20.80;70.00;;;;;;5072214;28;20035;-73
2022/07/24 02:53:29;;;;;;;5.60;3.90;;;20.80;70.10;;;;;;5071338;28;20016;-73
2022/07/24 02:55:55;;;;;;;9.65;5.90;;;20.80;70.00;;;;;;5072197;28;20031;-73
2022/07/24 02:58:20;;;;;;;8.98;6.78;;;20.80;70.20;;;;;;5055625;28;20483;-73
2022/07/24 03:00:46;;;;;;;7.93;5.75;;;20.80;70.00;;;;;;5063436;28;20119;-72
2022/07/24 03:03:12;;;;;;;8.63;5.40;;;20.80;69.90;;;;;;5071116;28;20055;-72
2022/07/24 03:05:37;;;;;;;6.53;4.40;;;20.80;69.80;;;;;;5072190;28;20044;-73
2022/07/24 03:08:03;;;;;;;8.60;5.72;;;20.80;69.60;;;;;;5072384;28;20024;-72
2022/07/24 03:10:29;;;;;;;10.75;7.13;;;20.80;69.80;;;;;;5071089;28;20532;-73
2022/07/24 03:12:55;;;;;;;7.82;5.43;;;20.80;69.90;;;;;;5061084;28;20101;-71
2022/07/24 03:15:21;;;;;;;8.15;5.57;;;20.80;70.00;;;;;;5071714;28;20059;-72
2022/07/24 03:17:55;;;;;;;9.93;6.75;;;20.70;69.90;;;;;;5061860;28;20020;-73
2022/07/24 03:20:22;;;;;;;10.43;7.28;;;20.70;70.10;;;;;;5072156;28;20119;-72
2022/07/24 03:22:48;;;;;;;7.63;5.57;;;20.70;70.30;;;;;;5064679;28;20529;-72
2022/07/24 03:25:14;;;;;;;12.10;7.18;;;20.70;70.20;;;;;;5051361;28;20040;-73
2022/07/24 03:27:40;;;;;;;7.65;5.70;;;20.70;70.40;;;;;;5071000;28;20024;-73
2022/07/24 03:30:06;;;;;;;10.90;7.35;;;20.80;70.80;;;;;;5064438;28;20025;-72
2022/07/24 03:32:32;;;;;;;10.75;7.50;;;20.70;70.90;;;;;;5066078;28;20028;-72
2022/07/24 03:34:58;;;;;;;10.80;7.80;;;20.80;70.90;;;;;;5071457;28;20037;-73
2022/07/24 03:37:23;;;;;;;9.20;6.72;;;20.80;71.10;;;;;;5071077;28;20474;-73
2022/07/24 03:39:49;;;;;;;10.05;7.60;;;20.80;71.30;;;;;;5071144;28;20491;-73
2022/07/24 03:42:15;;;;;;;9.80;6.15;;;20.80;71.30;;;;;;5069376;28;20104;-73
2022/07/24 03:44:41;;;;;;;10.25;7.60;;;20.80;71.30;;;;;;5071845;28;20056;-73
2022/07/24 03:47:06;;;;;;;9.23;6.65;;;20.80;71.50;;;;;;5066408;28;20554;-73
2022/07/24 03:49:35;;;;;;;8.68;6.57;;;20.70;71.50;;;;;;5071706;28;20096;-72
2022/07/24 03:52:00;;;;;;;8.30;6.20;;;20.70;71.80;;;;;;5069972;28;20033;-72
2022/07/24 03:54:26;;;;;;;11.20;6.45;;;20.70;71.70;;;;;;5050689;28;20086;-72
2022/07/24 03:56:52;;;;;;;8.27;5.68;;;20.60;71.90;;;;;;5055909;28;20020;-73
2022/07/24 03:59:18;;;;;;;7.82;5.68;;;20.60;71.80;;;;;;5068788;28;20033;-72
2022/07/24 04:01:46;;;;;;;12.55;8.57;;;20.60;71.80;;;;;;5070934;28;20487;-72
2022/07/24 04:04:11;;;;;;;9.05;6.53;;;20.60;71.90;;;;;;5071409;28;20032;-72
2022/07/24 04:06:37;;;;;;;9.20;6.55;;;20.60;71.90;;;;;;5069186;28;20028;-72
2022/07/24 04:09:04;;;;;;;8.10;5.45;;;20.60;71.90;;;;;;5070926;28;20550;-72
2022/07/24 04:11:30;;;;;;;10.02;6.63;;;20.60;71.80;;;;;;5070460;28;20541;-72
2022/07/24 04:13:56;;;;;;;8.00;5.82;;;20.50;71.70;;;;;;5065115;28;20044;-72
2022/07/24 04:16:21;;;;;;;8.20;6.20;;;20.50;71.90;;;;;;5071502;28;20542;-73
2022/07/24 04:18:47;;;;;;;8.55;6.20;;;20.50;72.10;;;;;;5070934;28;20031;-73
2022/07/24 04:21:14;;;;;;;8.55;5.75;;;20.50;72.90;;;;;;5070972;28;20616;-73
2022/07/24 04:23:39;;;;;;;12.43;9.70;;;20.50;72.40;;;;;;5068277;28;20090;-73
2022/07/24 04:26:05;;;;;;;12.02;7.93;;;20.60;72.20;;;;;;5070673;28;20024;-73
2022/07/24 04:28:31;;;;;;;14.60;10.57;;;20.60;72.10;;;;;;5068527;28;20407;-73
2022/07/24 04:30:56;;;;;;;12.27;8.90;;;20.60;72.20;;;;;;5070403;28;20025;-73
2022/07/24 04:33:22;;;;;;;13.23;9.00;;;20.60;72.20;;;;;;5068944;28;20483;-73
2022/07/24 04:35:48;;;;;;;12.38;9.65;;;20.60;72.30;;;;;;5070864;28;20037;-73
2022/07/24 04:38:14;;;;;;;11.00;9.38;;;20.60;72.40;;;;;;5058730;28;20642;-73
2022/07/24 04:40:40;;;;;;;13.13;9.38;;;20.60;72.50;;;;;;5071102;28;20103;-73
2022/07/24 04:43:06;;;;;;;12.52;9.27;;;20.60;72.50;;;;;;5071901;28;20480;-74
2022/07/24 04:45:31;;;;;;;10.98;9.13;;;20.60;72.50;;;;;;5078282;28;20023;-73
2022/07/24 04:47:57;;;;;;;11.93;9.25;;;20.60;72.50;;;;;;5058953;28;20110;-73
2022/07/24 04:50:23;;;;;;;13.23;10.55;;;20.60;72.40;;;;;;5072848;28;20032;-74
2022/07/24 04:52:48;;;;;;;10.50;8.73;;;20.70;72.40;;;;;;5060805;28;20052;-73
2022/07/24 04:55:14;;;;;;;13.93;10.00;;;20.70;72.10;;;;;;5066363;28;20036;-73
2022/07/24 04:57:40;;;;;;;16.77;11.38;;;20.70;72.10;;;;;;5070249;28;20773;-74
2022/07/24 05:00:09;;;;;;;15.25;10.55;;;20.60;72.20;;;;;;5069706;28;20109;-73
2022/07/24 05:02:35;;;;;;;13.80;10.30;;;20.70;72.40;;;;;;5069826;28;20021;-73
2022/07/24 05:05:00;;;;;;;12.23;8.63;;;20.70;72.30;;;;;;5070181;28;20024;-73
2022/07/24 05:07:26;;;;;;;12.85;10.15;;;20.70;72.20;;;;;;5068605;28;20501;-73
2022/07/24 05:09:52;;;;;;;9.95;8.02;;;20.70;72.20;;;;;;5068926;28;20891;-73
2022/07/24 05:12:18;;;;;;;12.40;9.65;;;20.80;72.20;;;;;;5068054;28;20040;-73
2022/07/24 05:14:43;;;;;;;14.10;11.45;;;20.80;72.10;;;;;;5069337;28;20035;-73
2022/07/24 05:17:09;;;;;;;16.75;14.27;;;20.90;72.10;;;;;;5069544;28;20028;-73
2022/07/24 05:19:35;;;;;;;13.88;11.23;;;20.90;72.10;;;;;;5068397;28;20131;-73
2022/07/24 05:22:00;;;;;;;14.82;11.38;;;20.90;72.00;;;;;;5068917;28;20028;-74
2022/07/24 05:24:26;;;;;;;16.17;13.38;;;21.00;72.10;;;;;;5069500;28;20547;-74
2022/07/24 05:26:52;;;;;;;18.20;13.45;;;21.00;72.00;;;;;;5057772;28;20243;-73
2022/07/24 05:29:18;;;;;;;11.05;8.50;;;21.10;72.10;;;;;;5069525;28;20103;-73
2022/07/24 05:31:43;;;;;;;16.77;13.07;;;21.20;71.50;;;;;;5069384;28;20023;-73
2022/07/24 05:34:12;;;;;;;16.60;12.75;;;21.20;71.70;;;;;;5067861;28;20032;-73
2022/07/24 05:36:38;;;;;;;14.82;11.38;;;21.20;71.80;;;;;;5061826;28;20103;-73
2022/07/24 05:39:04;;;;;;;24.10;14.30;;;21.30;71.90;;;;;;5069719;28;20020;-73
2022/07/24 05:41:30;;;;;;;16.33;12.43;;;21.30;71.80;;;;;;5067333;28;20049;-73
2022/07/24 05:43:56;;;;;;;16.05;13.70;;;21.30;72.00;;;;;;5069251;28;20059;-73
2022/07/24 05:46:21;;;;;;;15.73;12.73;;;21.30;71.90;;;;;;5069080;28;20024;-73
2022/07/24 05:48:47;;;;;;;19.08;13.52;;;21.40;72.30;;;;;;5065104;28;20033;-73
2022/07/24 05:51:13;;;;;;;18.08;15.07;;;21.40;72.20;;;;;;5067034;28;20036;-74
2022/07/24 05:53:39;;;;;;;16.33;13.00;;;21.60;72.20;;;;;;5059870;28;20045;-72
2022/07/24 05:56:05;;;;;;;19.10;15.73;;;21.60;72.20;;;;;;5070470;28;20024;-73
2022/07/24 05:58:30;;;;;;;19.85;16.40;;;21.70;72.10;;;;;;5059724;28;20044;-72
2022/07/24 06:00:56;;;;;;;19.95;16.95;;;21.70;72.20;;;;;;5054025;28;20020;-73
2022/07/24 06:03:22;;;;;;;16.75;12.77;;;21.70;72.00;;;;;;5068413;28;20107;-74
2022/07/24 06:05:47;;;;;;;14.10;12.18;;;21.70;72.10;;;;;;5068709;28;20060;-74
2022/07/24 06:08:13;;;;;;;9.23;6.63;;;21.70;71.90;;;;;;5070222;28;20866;-73
2022/07/24 06:10:39;;;;;;;20.42;16.23;;;21.80;69.40;;;;;;5069857;28;20021;-73
2022/07/24 06:13:05;;;;;;;16.42;12.80;;;21.80;69.30;;;;;;5062018;28;20483;-73
2022/07/24 06:15:30;;;;;;;22.23;16.55;;;21.90;70.50;;;;;;5066234;28;20032;-73
2022/07/24 06:17:56;;;;;;;19.25;15.23;;;22.00;71.10;;;;;;5057661;28;20080;-73
2022/07/24 06:20:22;;;;;;;21.35;16.98;;;22.00;71.40;;;;;;5067917;28;20048;-72
2022/07/24 06:22:47;;;;;;;19.80;15.15;;;22.10;70.40;;;;;;5064179;28;20036;-73
2022/07/24 06:25:14;;;;;;;21.38;16.25;;;22.10;71.30;;;;;;5067484;28;20031;-73
2022/07/24 06:27:44;;;;;;;18.30;13.73;;;22.10;71.70;;;;;;5071030;28;20410;-74
2022/07/24 06:30:14;;;;;;;18.17;13.18;;;22.10;71.80;;;;;;5073354;28;20139;-74
2022/07/24 06:32:40;;;;;;;13.32;10.32;;;22.20;71.60;;;;;;5067228;28;20016;-74
2022/07/24 06:35:06;;;;;;;10.77;7.03;;;22.30;70.50;;;;;;5063447;28;20032;-74
2022/07/24 06:37:32;;;;;;;7.88;6.25;;;22.30;68.10;;;;;;5070336;28;20467;-74
2022/07/24 06:39:58;;;;;;;9.13;6.90;;;22.40;67.10;;;;;;5072939;28;20036;-73
2022/07/24 06:42:24;;;;;;;17.30;14.27;;;22.50;66.90;;;;;;5068065;28;20024;-71
2022/07/24 06:44:49;;;;;;;13.70;10.63;;;22.60;66.70;;;;;;5065748;28;20032;-73
2022/07/24 06:47:15;;;;;;;11.45;9.20;;;22.70;67.10;;;;;;5055481;28;20029;-72
2022/07/24 06:49:41;;;;;;;11.63;9.13;;;22.70;67.70;;;;;;5070126;28;20028;-72
2022/07/24 06:52:06;;;;;;;12.30;9.60;;;22.80;68.00;;;;;;5069288;28;20033;-71
2022/07/24 06:54:33;;;;;;;10.50;8.88;;;22.90;68.00;;;;;;5068251;28;20044;-73
2022/07/24 06:56:59;;;;;;;11.75;8.50;;;22.90;68.10;;;;;;5072191;28;20033;-73
2022/07/24 06:59:24;;;;;;;9.82;7.78;;;23.00;68.40;;;;;;5072103;28;20024;-71
2022/07/24 07:01:50;;;;;;;10.13;7.72;;;23.10;67.30;;;;;;5072773;28;20035;-71
2022/07/24 07:04:16;;;;;;;10.25;7.53;;;23.10;67.10;;;;;;5072224;28;20092;-71
2022/07/24 07:06:41;;;;;;;11.95;8.27;;;23.20;67.00;;;;;;5057768;28;20033;-72
2022/07/24 07:09:07;;;;;;;12.13;7.32;;;23.30;66.40;;;;;;5065352;28;20129;-72
2022/07/24 07:11:33;;;;;;;9.07;6.75;;;23.50;66.20;;;;;;5078442;28;20082;-72
2022/07/24 07:13:58;;;;;;;8.68;6.55;;;23.60;65.50;;;;;;5072952;28;20479;-72
2022/07/24 07:16:24;;;;;;;9.80;7.35;;;23.60;65.10;;;;;;5072598;28;20040;-72
2022/07/24 07:18:50;;;;;;;10.73;7.47;;;23.60;64.90;;;;;;5071257;28;20548;-72
2022/07/24 07:21:15;;;;;;;9.80;6.50;;;23.60;64.20;;;;;;5070428;28;20024;-72
2022/07/24 07:23:41;;;;;;;8.13;5.60;;;23.60;64.10;;;;;;5069453;28;20364;-71
2022/07/24 07:26:06;;;;;;;8.50;5.00;;;23.70;63.40;;;;;;5064781;28;20021;-72
2022/07/24 07:28:32;;;;;;;7.90;5.50;;;23.70;62.60;;;;;;5063804;28;20112;-72
2022/07/24 07:30:58;;;;;;;6.57;4.53;;;23.80;61.90;;;;;;5068954;28;20104;-72
2022/07/24 07:33:26;;;;;;;7.68;5.10;;;23.90;61.90;;;;;;5070596;28;20102;-72
2022/07/24 07:35:52;;;;;;;7.75;5.15;;;24.00;61.70;;;;;;5069660;28;20125;-72
2022/07/24 07:38:18;;;;;;;9.65;5.25;;;24.10;61.30;;;;;;5068376;28;20071;-72
2022/07/24 07:40:44;;;;;;;7.72;4.70;;;24.20;60.40;;;;;;5068303;28;20127;-72
2022/07/24 07:43:09;;;;;;;7.35;4.40;;;24.30;59.70;;;;;;5058249;28;20082;-73
2022/07/24 07:45:35;;;;;;;7.55;4.38;;;24.20;59.50;;;;;;5061765;28;20116;-72
2022/07/24 07:48:01;;;;;;;6.78;4.38;;;24.30;59.50;;;;;;5071721;28;20037;-72
2022/07/24 07:50:26;;;;;;;5.93;4.03;;;24.40;59.50;;;;;;5072368;28;20024;-72
2022/07/24 07:52:52;;;;;;;5.35;3.50;;;24.50;59.40;;;;;;5067072;28;20029;-72
2022/07/24 07:55:18;;;;;;;6.50;3.97;;;24.60;58.60;;;;;;5062565;28;20033;-72
2022/07/24 07:57:43;;;;;;;5.85;3.20;;;24.70;58.40;;;;;;5072706;28;20078;-72
2022/07/24 08:00:11;;;;;;;6.88;4.00;;;24.80;58.20;;;;;;5067779;28;20021;-72
2022/07/24 08:02:36;;;;;;;5.57;3.00;;;24.90;57.70;;;;;;5069868;28;20024;-73
2022/07/24 08:05:02;;;;;;;5.03;3.03;;;25.00;57.80;;;;;;5066444;28;20024;-72
2022/07/24 08:07:28;;;;;;;5.50;2.97;;;25.10;57.30;;;;;;5072139;28;20116;-72
2022/07/24 08:09:53;;;;;;;5.45;2.75;;;25.10;57.00;;;;;;5058282;28;20033;-72
2022/07/24 08:12:19;;;;;;;4.05;2.25;;;25.20;56.50;;;;;;5071945;28;20013;-72
2022/07/24 08:14:44;;;;;;;4.38;2.83;;;25.30;56.60;;;;;;5055405;28;20041;-72
2022/07/24 08:17:11;;;;;;;3.90;2.38;;;25.40;56.40;;;;;;5068209;28;20029;-74
2022/07/24 08:19:37;;;;;;;4.78;2.80;;;25.60;56.10;;;;;;5070710;28;20402;-72
2022/07/24 08:22:04;;;;;;;4.20;2.33;;;25.60;55.30;;;;;;5070911;28;20031;-72
2022/07/24 08:24:32;;;;;;;5.45;2.80;;;25.70;55.30;;;;;;5070481;28;20376;-73
2022/07/24 08:26:58;;;;;;;4.50;2.70;;;25.80;54.80;;;;;;5071354;28;20040;-73
2022/07/24 08:29:25;;;;;;;3.92;2.50;;;25.90;55.00;;;;;;5064277;28;20537;-73
2022/07/24 08:31:50;;;;;;;4.72;2.45;;;26.00;54.90;;;;;;5062418;28;20036;-73
2022/07/24 08:34:16;;;;;;;4.22;2.40;;;26.00;54.10;;;;;;5054665;28;20041;-72
2022/07/24 08:36:45;;;;;;;4.88;2.75;;;26.00;54.40;;;;;;5058106;28;20020;-72
2022/07/24 08:39:12;;;;;;;5.05;2.90;;;26.10;54.30;;;;;;5056060;28;20407;-71
2022/07/24 08:41:38;;;;;;;5.20;2.92;;;26.20;54.40;;;;;;5060133;28;20513;-72
2022/07/24 08:44:04;;;;;;;5.03;2.50;;;26.30;54.40;;;;;;5066222;28;20067;-72
2022/07/24 08:46:31;;;;;;;5.53;2.83;;;26.40;54.30;;;;;;5054024;28;20845;-72
2022/07/24 08:48:57;;;;;;;4.97;2.83;;;26.50;54.10;;;;;;5069295;28;20049;-72
2022/07/24 08:51:37;;;;;;;5.38;3.20;;;26.60;54.00;;;;;;5052479;28;20033;-72
2022/07/24 08:54:05;;;;;;;5.72;3.35;;;26.70;53.20;;;;;;5070718;28;20116;-72
2022/07/24 08:56:33;;;;;;;4.97;2.67;;;26.70;53.40;;;;;;5054427;28;20031;-73
2022/07/24 08:58:59;;;;;;;5.10;2.70;;;26.70;53.80;;;;;;5066042;28;20036;-72
2022/07/24 09:01:25;;;;;;;4.93;2.47;;;26.90;53.60;;;;;;5070130;28;20024;-72
2022/07/24 09:03:54;;;;;;;4.65;2.92;;;27.10;53.50;;;;;;5069533;28;20051;-72
2022/07/24 09:06:20;;;;;;;5.18;2.97;;;27.10;52.90;;;;;;5068920;28;20028;-72
2022/07/24 09:09:12;;;;;;;4.68;2.60;;;27.30;53.40;;;;;;5066303;28;20055;-71
2022/07/24 09:11:37;;;;;;;4.53;2.60;;;27.40;54.10;;;;;;5067928;28;20039;-72
2022/07/24 09:16:47;;;;;;;3.95;2.67;;;27.60;52.80;;;;;;5060041;28;20116;-71
2022/07/24 09:19:16;;;;;;;4.22;2.40;;;27.70;52.20;;;;;;5061327;28;20132;-71
2022/07/24 09:21:42;;;;;;;4.22;2.47;;;27.80;52.20;;;;;;5064514;28;20391;-72
2022/07/24 09:24:22;;;;;;;3.47;1.83;;;27.80;52.80;;;;;;5059263;28;20084;-71
2022/07/24 09:26:50;;;;;;;3.38;2.00;;;27.90;52.60;;;;;;5052576;28;20028;-72
2022/07/24 09:29:17;;;;;;;3.42;2.20;;;27.90;51.40;;;;;;5061784;28;20422;-72
2022/07/24 09:32:02;;;;;;;5.03;2.45;;;27.80;50.60;;;;;;5061464;28;20112;-72
2022/07/24 09:34:40;;;;;;;4.22;2.60;;;27.80;51.10;;;;;;5064790;28;20112;-71
2022/07/24 09:37:07;;;;;;;3.38;2.17;;;27.80;51.50;;;;;;5064476;28;20040;-71
2022/07/24 09:39:36;;;;;;;3.50;2.10;;;28.00;51.80;;;;;;5070516;28;20145;-72
2022/07/24 09:42:05;;;;;;;3.63;2.15;;;28.00;51.30;;;;;;5068289;28;20054;-70
2022/07/24 09:44:31;;;;;;;3.25;1.92;;;28.00;51.20;;;;;;5060166;28;20063;-72
2022/07/24 09:46:59;;;;;;;6.03;2.08;;;28.10;52.00;;;;;;5066733;28;20017;-72
2022/07/24 09:49:27;;;;;;;4.22;2.30;;;28.20;52.10;;;;;;5070559;28;20029;-71
2022/07/24 09:52:10;;;;;;;4.05;2.30;;;28.20;52.40;;;;;;5061732;28;20052;-72
2022/07/24 09:54:43;;;;;;;3.90;2.45;;;28.30;51.20;;;;;;5061099;28;20398;-72
2022/07/24 09:57:19;;;;;;;3.42;2.15;;;28.30;50.80;;;;;;5068674;28;20383;-72
2022/07/24 09:59:48;;;;;;;3.20;2.00;;;28.40;50.30;;;;;;5067807;28;20024;-72
2022/07/24 10:02:15;;;;;;;3.30;2.25;;;28.40;50.20;;;;;;5058341;28;20178;-72
2022/07/24 10:04:43;;;;;;;2.88;1.80;;;28.50;50.30;;;;;;5068808;28;20024;-73
2022/07/24 10:07:13;;;;;;;4.53;2.42;;;28.60;50.10;;;;;;5061293;28;20033;-72
2022/07/24 10:09:42;;;;;;;3.22;1.88;;;28.70;49.60;;;;;;5058762;28;20027;-73
2022/07/24 10:12:14;;;;;;;3.50;2.20;;;28.90;50.30;;;;;;5065168;28;20029;-72
2022/07/24 10:14:41;;;;;;;5.22;2.83;;;29.10;50.50;;;;;;5069024;28;20020;-70
2022/07/24 10:17:08;;;;;;;3.35;1.90;;;29.10;50.70;;;;;;5058722;28;20091;-72
2022/07/24 10:19:48;;;;;;;3.47;1.77;;;29.10;51.90;;;;;;5058273;28;20432;-73
2022/07/24 10:22:19;;;;;;;4.20;2.30;;;29.30;51.40;;;;;;5054107;28;20029;-73
2022/07/24 10:24:57;;;;;;;3.17;1.83;;;29.30;51.10;;;;;;5054566;28;20082;-72
2022/07/24 10:27:24;;;;;;;4.05;2.22;;;29.40;51.70;;;;;;5056785;28;20025;-73
2022/07/24 10:29:53;;;;;;;3.40;2.20;;;29.60;49.60;;;;;;5058035;28;20095;-72
2022/07/24 10:32:20;;;;;;;4.28;2.05;;;29.60;49.80;;;;;;5060681;28;20070;-71
2022/07/24 10:35:06;;;;;;;3.78;2.30;;;29.60;49.40;;;;;;5056863;28;20029;-73
2022/07/24 10:37:39;;;;;;;3.38;2.25;;;29.80;49.30;;;;;;5065313;28;20021;-71
2022/07/24 10:40:29;;;;;;;3.67;2.42;;;29.90;49.60;;;;;;5061142;28;20045;-71
2022/07/24 10:43:09;;;;;;;3.25;2.15;;;30.10;51.60;;;;;;5061962;28;20035;-71
2022/07/24 10:45:36;;;;;;;3.83;2.40;;;30.20;49.90;;;;;;5069408;28;20025;-73
2022/07/24 10:48:20;;;;;;;3.90;2.40;;;30.00;46.70;;;;;;5058397;28;20036;-73
2022/07/24 10:51:07;;;;;;;4.32;2.95;;;30.10;47.10;;;;;;5053518;28;20032;-73
2022/07/24 10:53:38;;;;;;;4.88;2.85;;;30.30;45.80;;;;;;5057153;28;20064;-73
2022/07/24 10:56:38;;;;;;;4.18;2.50;;;30.50;44.90;;;;;;5066245;28;20032;-74
2022/07/24 10:59:09;;;;;;;4.38;2.42;;;30.60;45.70;;;;;;5063199;28;20029;-74
2022/07/24 11:01:50;;;;;;;6.20;2.53;;;30.80;50.70;;;;;;5065965;28;20029;-75
2022/07/24 11:04:19;;;;;;;3.40;2.15;;;30.80;50.20;;;;;;5059453;28;20368;-75
2022/07/24 11:06:47;;;;;;;4.10;1.67;;;30.70;45.30;;;;;;5058874;28;20020;-74
2022/07/24 11:09:18;;;;;;;4.53;2.67;;;30.70;46.00;;;;;;5056826;28;20097;-75
2022/07/24 11:11:52;;;;;;;4.10;2.50;;;30.90;45.50;;;;;;5065670;28;20099;-75
2022/07/24 11:14:23;;;;;;;3.65;2.08;;;31.00;44.90;;;;;;5066009;28;20378;-75
2022/07/24 11:16:49;;;;;;;4.68;2.33;;;31.20;45.90;;;;;;5064338;28;20021;-75
2022/07/24 11:19:14;;;;;;;5.35;2.80;;;31.20;45.70;;;;;;5063275;28;20040;-74
2022/07/24 11:21:42;;;;;;;3.67;1.90;;;31.30;44.00;;;;;;5064038;28;20129;-75
2022/07/24 11:24:22;;;;;;;4.80;2.13;;;31.30;48.80;;;;;;5056054;28;20017;-75
2022/07/24 11:26:51;;;;;;;4.20;2.00;;;31.50;49.10;;;;;;5056995;28;20029;-74
2022/07/24 11:29:36;;;;;;;4.85;2.60;;;31.70;47.70;;;;;;5056259;28;20051;-76
2022/07/24 11:32:13;;;;;;;4.55;2.20;;;31.80;47.30;;;;;;5055536;28;20450;-76
2022/07/24 11:34:43;;;;;;;4.88;2.22;;;32.00;44.40;;;;;;5053042;28;20033;-77
2022/07/24 11:37:09;;;;;;;3.78;2.10;;;32.00;48.10;;;;;;5053919;28;20032;-75
2022/07/24 11:39:39;;;;;;;6.18;2.40;;;32.00;45.90;;;;;;5053634;28;21412;-76
2022/07/24 11:42:09;;;;;;;;;;;32.00;47.50;;;;;;5057103;28;20041;-77
2022/07/24 11:44:49;;;;;;;4.25;2.53;;;31.90;45.00;;;;;;5055567;28;19916;-75
2022/07/24 11:47:23;;;;;;;4.97;2.53;;;31.80;42.90;;;;;;5055256;28;20021;-75
2022/07/24 11:50:00;;;;;;;5.47;2.28;;;31.90;44.10;;;;;;5056020;28;20067;-74
2022/07/24 11:52:32;;;;;;;4.03;2.20;;;32.10;47.10;;;;;;5056409;28;20593;-74
2022/07/24 11:55:01;;;;;;;4.93;2.83;;;32.30;44.60;;;;;;5052239;28;20035;-74
2022/07/24 11:57:35;;;;;;;3.55;2.40;;;32.40;42.70;;;;;;5059414;28;20032;-74
2022/07/24 12:00:02;;;;;;;5.78;2.53;;;32.40;44.60;;;;;;5051278;28;20514;-78
2022/07/24 12:02:28;;;;;;;3.90;2.20;;;32.40;44.00;;;;;;5056116;28;20084;-76
2022/07/24 12:04:55;;;;;;;4.07;2.42;;;32.40;44.10;;;;;;5061489;28;20028;-75
2022/07/24 12:07:26;;;;;;;5.32;2.17;;;32.50;43.60;;;;;;5061573;28;20424;-75
2022/07/24 12:09:57;;;;;;;5.90;2.80;;;32.40;45.50;;;;;;5061010;28;20037;-75
2022/07/24 12:12:26;;;;;;;4.00;2.45;;;32.00;42.70;;;;;;5056321;28;20029;-75
2022/07/24 12:14:54;;;;;;;4.43;2.30;;;31.90;45.20;;;;;;5066898;28;20036;-74
2022/07/24 12:17:20;;;;;;;4.57;2.50;;;31.90;46.30;;;;;;5070515;28;20028;-75
2022/07/24 12:19:53;;;;;;;3.40;2.40;;;32.00;43.60;;;;;;5069321;28;20021;-76
2022/07/24 12:22:21;;;;;;;4.18;2.10;;;31.90;43.50;;;;;;5067123;28;20403;-76
2022/07/24 12:24:47;;;;;;;4.60;2.38;;;32.00;47.50;;;;;;5060103;28;20024;-76
2022/07/24 12:27:35;;;;;;;4.43;2.30;;;32.00;44.40;;;;;;5066478;28;20067;-77
2022/07/24 12:30:01;;;;;;;4.25;2.60;;;32.30;45.90;;;;;;5061849;28;20036;-77
2022/07/24 12:32:27;;;;;;;3.67;2.00;;;32.50;43.50;;;;;;5066308;28;20486;-76
2022/07/24 12:34:52;;;;;;;4.20;2.03;;;32.60;46.10;;;;;;5069083;28;20048;-76
2022/07/24 12:37:22;;;;;;;4.88;2.33;;;32.50;48.80;;;;;;5071028;28;20032;-76
2022/07/24 12:39:49;;;;;;;3.53;2.13;;;32.30;44.30;;;;;;5068213;28;20028;-77
2022/07/24 12:42:15;;;;;;;6.40;2.40;;;32.30;44.50;;;;;;5069404;28;20017;-76
2022/07/24 12:44:45;;;;;;;3.30;2.10;;;32.20;45.20;;;;;;5069321;28;20107;-77
2022/07/24 12:47:12;;;;;;;6.30;2.47;;;32.20;51.60;;;;;;5067278;28;20126;-75